Time;durP1;ratioP1;P1;durP2;ratioP2;P2;SDS_P1;SDS_P2;PMS_P1;PMS_P2;Temp;Humidity;BMP_temperature;BMP_pressure;BME280_temperature;BME280_humidity;BME280_pressure;Samples;Min_cycle;Max_cycle;Signal;HPM_P1;HPM_P2
2022/02/12 00:00:13;;;;;;;11.73;9.90;;;-1.10;99.90;;;;;;5017231;28;20237;-68
2022/02/12 00:02:39;;;;;;;14.20;10.07;;;-1.10;99.90;;;;;;5015644;28;20218;-67
2022/02/12 00:05:06;;;;;;;13.13;10.47;;;-1.00;99.90;;;;;;5016097;28;20294;-67
2022/02/12 00:07:32;;;;;;;10.57;9.60;;;-1.00;99.90;;;;;;5024141;28;20285;-67
2022/02/12 00:09:57;;;;;;;10.33;8.97;;;-1.00;99.90;;;;;;5027020;28;20226;-67
2022/02/12 00:12:23;;;;;;;14.83;10.20;;;-1.10;99.90;;;;;;5034061;28;20264;-67
2022/02/12 00:14:49;;;;;;;16.63;10.03;;;-1.00;99.90;;;;;;5032284;28;20172;-67
2022/02/12 00:17:15;;;;;;;14.60;10.97;;;-1.10;99.90;;;;;;5013065;28;20279;-67
2022/02/12 00:19:40;;;;;;;10.43;9.40;;;-1.00;99.90;;;;;;5028977;28;20767;-67
2022/02/12 00:22:06;;;;;;;12.97;10.40;;;-1.10;99.90;;;;;;5014449;28;20207;-67
2022/02/12 00:24:31;;;;;;;11.53;10.50;;;-1.00;99.90;;;;;;5025431;28;20204;-67
2022/02/12 00:26:57;;;;;;;14.70;10.43;;;-1.00;99.90;;;;;;5017683;28;20637;-67
2022/02/12 00:29:22;;;;;;;13.30;10.53;;;-1.00;99.90;;;;;;5020508;28;20180;-67
2022/02/12 00:31:48;;;;;;;11.37;10.40;;;-1.00;99.90;;;;;;5029146;28;20322;-67
2022/02/12 00:34:14;;;;;;;11.23;10.33;;;-1.00;99.90;;;;;;5024163;28;20222;-67
2022/02/12 00:36:40;;;;;;;11.33;10.20;;;-1.00;99.90;;;;;;5029232;28;20184;-67
2022/02/12 00:39:05;;;;;;;12.13;10.83;;;-1.10;99.90;;;;;;5026748;28;20184;-67
2022/02/12 00:41:31;;;;;;;12.00;10.77;;;-1.10;99.90;;;;;;5031689;28;20418;-67
2022/02/12 00:43:57;;;;;;;11.87;9.27;;;-1.10;99.90;;;;;;5012308;28;20234;-67
2022/02/12 00:46:22;;;;;;;14.63;10.33;;;-1.10;99.90;;;;;;5018549;28;20192;-67
2022/02/12 00:48:48;;;;;;;11.10;10.23;;;-1.20;99.90;;;;;;5023296;28;20202;-67
2022/02/12 00:51:14;;;;;;;15.83;10.43;;;-1.20;99.90;;;;;;5028838;28;20207;-67
2022/02/12 00:53:40;;;;;;;12.47;10.20;;;-1.10;99.90;;;;;;5029298;28;20642;-67
2022/02/12 00:56:06;;;;;;;20.13;10.33;;;-1.10;99.90;;;;;;5024314;28;20193;-68
2022/02/12 00:58:32;;;;;;;14.93;10.20;;;-1.10;99.90;;;;;;5019861;28;20198;-67
2022/02/12 01:00:58;;;;;;;9.97;9.27;;;-1.10;99.90;;;;;;5027866;28;20293;-67
2022/02/12 01:03:24;;;;;;;13.87;9.97;;;-1.10;99.90;;;;;;5026231;28;20184;-67
2022/02/12 01:05:49;;;;;;;10.47;9.37;;;-1.10;99.90;;;;;;5027092;28;20253;-67
2022/02/12 01:08:15;;;;;;;15.67;11.00;;;-1.10;99.90;;;;;;5021692;28;20258;-67
2022/02/12 01:10:41;;;;;;;13.67;10.03;;;-1.20;99.90;;;;;;5023255;28;20641;-67
2022/02/12 01:13:07;;;;;;;19.20;10.90;;;-1.20;99.90;;;;;;5032988;28;20163;-67
2022/02/12 01:15:33;;;;;;;15.33;9.87;;;-1.20;99.90;;;;;;5014610;28;20182;-67
2022/02/12 01:17:59;;;;;;;11.17;10.07;;;-1.20;99.90;;;;;;5026017;28;20175;-67
2022/02/12 01:20:25;;;;;;;11.07;9.97;;;-1.20;99.90;;;;;;5018030;28;20183;-67
2022/02/12 01:22:51;;;;;;;16.40;10.77;;;-1.10;99.90;;;;;;5021891;28;20569;-67
2022/02/12 01:25:16;;;;;;;12.03;10.97;;;-1.20;99.90;;;;;;5023353;28;20204;-67
2022/02/12 01:27:42;;;;;;;12.20;11.10;;;-1.30;99.90;;;;;;5011879;28;20180;-67
2022/02/12 01:30:09;;;;;;;15.73;11.13;;;-1.30;99.90;;;;;;5016501;28;20174;-67
2022/02/12 01:32:35;;;;;;;21.40;12.23;;;-1.30;99.90;;;;;;5012811;28;20219;-67
2022/02/12 01:35:01;;;;;;;13.63;12.23;;;-1.40;99.90;;;;;;5013528;28;20558;-67
2022/02/12 01:37:27;;;;;;;17.70;12.20;;;-1.40;99.90;;;;;;5012917;28;20173;-67
2022/02/12 01:39:53;;;;;;;21.40;15.03;;;-1.40;99.90;;;;;;5016323;28;20184;-67
2022/02/12 01:42:19;;;;;;;24.03;13.57;;;-1.50;99.90;;;;;;5012378;28;20202;-66
2022/02/12 01:44:45;;;;;;;17.87;11.70;;;-1.50;99.90;;;;;;5015735;28;20294;-67
2022/02/12 01:47:11;;;;;;;15.23;11.60;;;-1.40;99.90;;;;;;5029076;28;20175;-67
2022/02/12 01:49:39;;;;;;;12.73;11.40;;;-1.40;99.90;;;;;;5015654;28;20191;-67
2022/02/12 01:52:07;;;;;;;25.00;13.50;;;-1.40;99.90;;;;;;5029549;28;20218;-67
2022/02/12 01:54:34;;;;;;;19.00;12.27;;;-1.30;99.90;;;;;;5020715;28;20334;-67
2022/02/12 01:57:01;;;;;;;12.20;11.10;;;-1.40;99.90;;;;;;5016420;28;20569;-67
2022/02/12 01:59:27;;;;;;;12.13;10.93;;;-1.30;99.90;;;;;;5015752;28;20702;-67
2022/02/12 02:01:53;;;;;;;20.87;13.87;;;-1.40;99.90;;;;;;5024459;28;20348;-67
2022/02/12 02:04:19;;;;;;;13.33;11.47;;;-1.40;99.90;;;;;;5028142;28;20207;-67
2022/02/12 02:06:47;;;;;;;13.63;12.20;;;-1.50;99.90;;;;;;5018334;28;20722;-67
2022/02/12 02:09:17;;;;;;;16.30;11.97;;;-1.40;99.90;;;;;;5019007;28;20541;-67
2022/02/12 02:11:42;;;;;;;13.83;11.67;;;-1.40;99.90;;;;;;5029286;28;20203;-67
2022/02/12 02:14:08;;;;;;;15.70;12.13;;;-1.40;99.90;;;;;;5023166;28;20537;-67
2022/02/12 02:16:34;;;;;;;21.93;12.40;;;-1.50;99.90;;;;;;5011143;28;20203;-67
2022/02/12 02:19:00;;;;;;;13.90;11.50;;;-1.50;99.90;;;;;;5020619;28;20203;-67
2022/02/12 02:21:28;;;;;;;20.77;11.70;;;-1.50;99.90;;;;;;5031915;28;20191;-67
2022/02/12 02:23:53;;;;;;;12.33;11.03;;;-1.50;99.90;;;;;;5023066;28;20200;-67
2022/02/12 02:26:19;;;;;;;14.53;10.93;;;-1.50;99.90;;;;;;5013341;28;20331;-67
2022/02/12 02:28:47;;;;;;;12.37;10.93;;;-1.50;99.90;;;;;;5021996;28;20239;-67
2022/02/12 02:31:12;;;;;;;14.93;10.67;;;-1.40;99.90;;;;;;5021849;28;20692;-66
2022/02/12 02:33:38;;;;;;;12.23;11.00;;;-1.40;99.90;;;;;;5025259;28;20218;-67
2022/02/12 02:36:04;;;;;;;13.27;10.47;;;-1.40;99.90;;;;;;5030854;28;20167;-67
2022/02/12 02:38:31;;;;;;;12.30;11.20;;;-1.30;99.90;;;;;;5012143;28;20175;-67
2022/02/12 02:40:57;;;;;;;17.20;11.77;;;-1.30;99.90;;;;;;5027047;28;20222;-67
2022/02/12 02:43:24;;;;;;;20.03;10.70;;;-1.20;99.90;;;;;;5020587;28;20183;-66
2022/02/12 02:45:50;;;;;;;11.97;10.80;;;-1.20;99.90;;;;;;5016109;28;20245;-67
2022/02/12 02:48:16;;;;;;;12.90;11.30;;;-1.20;99.90;;;;;;5018138;28;20233;-67
2022/02/12 02:56:13;;;;;;;12.53;11.30;;;-1.20;99.90;;;;;;5018111;28;20234;-67
2022/02/12 02:58:46;;;;;;;14.27;11.30;;;-1.20;99.90;;;;;;5018474;28;20179;-67
2022/02/12 03:01:11;;;;;;;16.73;12.13;;;-1.20;99.90;;;;;;5016163;28;20306;-67
2022/02/12 03:03:38;;;;;;;16.57;12.03;;;-1.10;99.90;;;;;;5018379;28;20639;-67
2022/02/12 03:06:05;;;;;;;13.93;10.20;;;-1.10;99.90;;;;;;5014763;28;20211;-67
2022/02/12 03:08:31;;;;;;;14.03;9.87;;;-1.10;99.90;;;;;;5012240;28;20188;-67
2022/02/12 03:10:57;;;;;;;14.90;10.27;;;-1.10;99.90;;;;;;5023996;28;20260;-67
2022/02/12 03:13:23;;;;;;;13.03;10.07;;;-1.10;99.90;;;;;;5026406;28;20263;-66
2022/02/12 03:15:49;;;;;;;12.13;10.50;;;-1.10;99.90;;;;;;5029229;28;20612;-67
2022/02/12 03:18:14;;;;;;;17.40;10.70;;;-1.10;99.90;;;;;;5028152;28;20183;-67
2022/02/12 03:20:40;;;;;;;14.00;10.43;;;-1.10;99.90;;;;;;5020602;28;20184;-67
2022/02/12 03:23:06;;;;;;;13.97;11.37;;;-1.20;99.90;;;;;;5013687;28;20182;-67
2022/02/12 03:25:32;;;;;;;17.13;12.70;;;-1.20;99.90;;;;;;5025008;28;20208;-67
2022/02/12 03:28:02;;;;;;;12.80;11.50;;;-1.20;99.90;;;;;;5024870;28;20183;-67
2022/02/12 03:30:32;;;;;;;17.07;12.00;;;-1.20;99.90;;;;;;5014264;28;20172;-67
2022/02/12 03:32:58;;;;;;;11.83;10.87;;;-1.20;99.90;;;;;;5021214;28;20548;-67
2022/02/12 03:35:27;;;;;;;15.07;12.50;;;-1.20;99.90;;;;;;5025678;28;20203;-67
2022/02/12 03:38:23;;;;;;;15.97;11.73;;;-1.20;99.90;;;;;;5031024;28;20549;-67
2022/02/12 03:40:50;;;;;;;17.47;11.80;;;-1.20;99.90;;;;;;5012057;28;20173;-67
2022/02/12 03:43:17;;;;;;;18.27;11.03;;;-1.30;99.90;;;;;;5012994;28;20172;-67
2022/02/12 03:45:43;;;;;;;13.53;10.77;;;-1.30;99.90;;;;;;5029483;28;20572;-67
2022/02/12 03:48:10;;;;;;;15.93;11.70;;;-1.30;99.90;;;;;;5022080;28;20201;-67
2022/02/12 03:50:37;;;;;;;16.10;11.50;;;-1.30;99.90;;;;;;5024825;28;20477;-67
2022/02/12 03:53:04;;;;;;;12.27;10.83;;;-1.30;99.90;;;;;;5033435;28;20186;-66
2022/02/12 03:55:31;;;;;;;12.07;11.10;;;-1.30;99.90;;;;;;5025709;28;20200;-66
2022/02/12 03:57:57;;;;;;;14.00;11.13;;;-1.30;99.90;;;;;;5029781;28;20179;-67
2022/02/12 04:00:23;;;;;;;18.53;11.10;;;-1.30;99.90;;;;;;5029064;28;20563;-66
2022/02/12 04:02:48;;;;;;;18.30;11.00;;;-1.30;99.90;;;;;;5034784;28;20242;-66
2022/02/12 04:05:15;;;;;;;23.67;11.07;;;-1.30;99.90;;;;;;5028209;28;20247;-66
2022/02/12 04:07:42;;;;;;;10.90;9.87;;;-1.30;99.90;;;;;;5015820;28;20238;-67
2022/02/12 04:10:13;;;;;;;13.50;10.87;;;-1.30;99.90;;;;;;5032053;28;20183;-66
2022/02/12 04:12:40;;;;;;;11.93;10.67;;;-1.30;99.90;;;;;;5016590;28;20239;-65
2022/02/12 04:15:07;;;;;;;12.13;10.17;;;-1.30;99.90;;;;;;5031334;28;20183;-66
2022/02/12 04:17:34;;;;;;;16.17;11.10;;;-1.30;99.90;;;;;;5015840;28;20184;-65
2022/02/12 04:20:11;;;;;;;20.33;11.23;;;-1.30;99.90;;;;;;5034276;28;20520;-66
2022/02/12 04:22:38;;;;;;;15.07;10.57;;;-1.30;99.90;;;;;;5014694;28;20657;-66
2022/02/12 04:25:06;;;;;;;16.20;11.33;;;-1.30;99.90;;;;;;5014739;28;20573;-66
2022/02/12 04:27:33;;;;;;;12.50;11.37;;;-1.30;99.90;;;;;;5034287;28;20175;-66
2022/02/12 04:29:59;;;;;;;12.57;11.27;;;-1.30;99.90;;;;;;5034118;28;20172;-66
2022/02/12 04:32:24;;;;;;;14.30;12.20;;;-1.30;99.90;;;;;;5014513;28;20603;-66
2022/02/12 04:34:51;;;;;;;14.67;11.30;;;-1.40;99.90;;;;;;5014404;28;20176;-66
2022/02/12 04:37:18;;;;;;;15.57;11.53;;;-1.30;99.90;;;;;;5032779;28;20191;-66
2022/02/12 04:39:44;;;;;;;12.97;11.90;;;-1.30;99.90;;;;;;5032714;28;20198;-66
2022/02/12 04:42:13;;;;;;;16.07;11.87;;;-1.30;99.90;;;;;;5015343;28;20227;-66
2022/02/12 04:44:46;;;;;;;12.37;11.37;;;-1.30;99.90;;;;;;5014070;28;20573;-66
2022/02/12 04:47:13;;;;;;;15.00;10.97;;;-1.30;99.90;;;;;;5030904;28;20183;-66
2022/02/12 04:49:40;;;;;;;17.80;12.10;;;-1.30;99.90;;;;;;5033766;28;20179;-66
2022/02/12 04:52:07;;;;;;;18.93;12.80;;;-1.30;99.90;;;;;;5032640;28;20696;-66
2022/02/12 04:54:33;;;;;;;12.57;11.23;;;-1.40;99.90;;;;;;5033732;28;20171;-66
2022/02/12 04:57:00;;;;;;;12.27;11.17;;;-1.40;99.90;;;;;;5016803;28;20199;-66
2022/02/12 04:59:26;;;;;;;16.20;11.47;;;-1.40;99.90;;;;;;5026007;28;20618;-66
2022/02/12 05:01:52;;;;;;;16.90;12.30;;;-1.40;99.90;;;;;;5031955;28;20257;-66
2022/02/12 05:04:18;;;;;;;16.23;11.47;;;-1.40;99.90;;;;;;5024729;28;20207;-66
2022/02/12 05:06:44;;;;;;;13.27;10.93;;;-1.40;99.90;;;;;;5033458;28;20176;-66
2022/02/12 05:09:13;;;;;;;15.10;12.07;;;-1.40;99.90;;;;;;5031877;28;20495;-66
2022/02/12 05:11:40;;;;;;;27.60;11.40;;;-1.40;99.90;;;;;;5022505;28;20203;-65
2022/02/12 05:14:06;;;;;;;12.30;11.10;;;-1.40;99.90;;;;;;5022404;28;20179;-66
2022/02/12 05:16:31;;;;;;;12.57;10.43;;;-1.40;99.90;;;;;;5025216;28;20227;-66
2022/02/12 05:18:57;;;;;;;12.60;10.97;;;-1.40;99.90;;;;;;5021711;28;20175;-66
2022/02/12 05:21:22;;;;;;;13.07;11.73;;;-1.40;99.90;;;;;;5026477;28;20207;-66
2022/02/12 05:23:48;;;;;;;16.07;12.33;;;-1.40;99.90;;;;;;5020315;28;20183;-66
2022/02/12 05:26:15;;;;;;;17.20;11.17;;;-1.40;99.90;;;;;;5031284;28;20276;-66
2022/02/12 05:28:41;;;;;;;16.33;11.50;;;-1.50;99.90;;;;;;5029325;28;20641;-66
2022/02/12 05:31:07;;;;;;;11.33;10.33;;;-1.50;99.90;;;;;;5012634;28;20249;-65
2022/02/12 05:33:37;;;;;;;12.07;10.93;;;-1.50;99.90;;;;;;5016002;28;20195;-66
2022/02/12 05:36:10;;;;;;;14.13;11.03;;;-1.50;99.90;;;;;;5026890;28;20695;-65
2022/02/12 05:38:39;;;;;;;18.27;10.90;;;-1.50;99.90;;;;;;5027709;28;20172;-67
2022/02/12 05:41:05;;;;;;;17.93;11.70;;;-1.50;99.90;;;;;;5032749;28;20196;-65
2022/02/12 05:43:32;;;;;;;13.80;10.83;;;-1.60;99.90;;;;;;5029217;28;20183;-66
2022/02/12 05:45:59;;;;;;;13.47;11.63;;;-1.60;99.90;;;;;;5026004;28;20211;-66
2022/02/12 05:48:24;;;;;;;14.57;13.07;;;-1.60;99.90;;;;;;5020672;28;20191;-66
2022/02/12 05:50:50;;;;;;;12.97;10.50;;;-1.60;99.90;;;;;;5021852;28;20212;-66
2022/02/12 05:53:16;;;;;;;19.73;13.20;;;-1.60;99.90;;;;;;5017831;28;20167;-66
2022/02/12 05:55:41;;;;;;;16.53;12.30;;;-1.60;99.90;;;;;;5021838;28;20188;-65
2022/02/12 05:58:07;;;;;;;14.70;11.00;;;-1.70;99.90;;;;;;5013525;28;20187;-66
2022/02/12 06:00:33;;;;;;;17.10;11.53;;;-1.70;99.90;;;;;;5018985;28;20233;-66
2022/02/12 06:02:59;;;;;;;16.17;11.07;;;-1.70;99.90;;;;;;5014906;28;20188;-66
2022/02/12 06:05:24;;;;;;;12.90;11.70;;;-1.70;99.90;;;;;;5026773;28;20290;-66
2022/02/12 06:07:50;;;;;;;14.97;11.53;;;-1.70;99.90;;;;;;5029412;28;20259;-66
2022/02/12 06:10:16;;;;;;;15.03;13.03;;;-1.70;99.90;;;;;;5017408;28;20184;-66
2022/02/12 06:12:42;;;;;;;14.83;11.97;;;-1.70;99.90;;;;;;5012354;28;20670;-66
2022/02/12 06:15:09;;;;;;;12.47;11.17;;;-1.70;99.90;;;;;;5029501;28;20185;-66
2022/02/12 06:17:35;;;;;;;18.33;12.40;;;-1.70;99.90;;;;;;5016740;28;20184;-66
2022/02/12 06:20:02;;;;;;;12.50;11.07;;;-1.70;99.90;;;;;;5029773;28;20187;-65
2022/02/12 06:22:28;;;;;;;13.37;11.13;;;-1.70;99.90;;;;;;5027128;28;20214;-66
2022/02/12 06:24:54;;;;;;;16.50;11.90;;;-1.70;99.90;;;;;;5015141;28;20208;-66
2022/02/12 06:27:20;;;;;;;14.93;11.40;;;-1.70;99.90;;;;;;5025523;28;20199;-66
2022/02/12 06:29:46;;;;;;;26.23;11.23;;;-1.70;99.90;;;;;;5015068;28;20215;-66
2022/02/12 06:32:12;;;;;;;13.60;11.53;;;-1.70;99.90;;;;;;5014663;28;20200;-66
2022/02/12 06:34:38;;;;;;;11.80;10.80;;;-1.70;99.90;;;;;;5026446;28;20181;-66
2022/02/12 06:37:05;;;;;;;11.50;10.57;;;-1.70;99.90;;;;;;5028279;28;20190;-66
2022/02/12 06:39:31;;;;;;;15.87;10.67;;;-1.70;99.90;;;;;;5028986;28;20187;-66
2022/02/12 06:41:56;;;;;;;13.33;11.23;;;-1.70;99.90;;;;;;5013733;28;20691;-65
2022/02/12 06:44:22;;;;;;;23.67;12.10;;;-1.70;99.90;;;;;;5019805;28;20737;-66
2022/02/12 06:46:49;;;;;;;21.93;12.10;;;-1.60;99.90;;;;;;5031485;28;20266;-66
2022/02/12 06:49:15;;;;;;;20.60;11.97;;;-1.60;99.90;;;;;;5013226;28;20226;-68
2022/02/12 06:51:40;;;;;;;12.60;11.30;;;-1.70;99.90;;;;;;5014390;28;20214;-66
2022/02/12 06:54:06;;;;;;;13.83;12.43;;;-1.60;99.90;;;;;;5019681;28;20657;-65
2022/02/12 06:56:31;;;;;;;16.03;12.80;;;-1.60;99.90;;;;;;5025641;28;20550;-65
2022/02/12 06:58:57;;;;;;;27.80;14.40;;;-1.70;99.90;;;;;;5031171;28;20179;-66
2022/02/12 07:01:25;;;;;;;16.50;12.27;;;-1.60;99.90;;;;;;5017192;28;20215;-66
2022/02/12 07:03:51;;;;;;;14.03;12.63;;;-1.60;99.90;;;;;;5021751;28;20232;-65
2022/02/12 07:06:17;;;;;;;19.43;11.53;;;-1.60;99.90;;;;;;5025805;28;20223;-66
2022/02/12 07:08:43;;;;;;;18.73;11.77;;;-1.60;99.90;;;;;;5021571;28;20661;-66
2022/02/12 07:11:08;;;;;;;11.90;10.90;;;-1.50;99.90;;;;;;5025825;28;20230;-66
2022/02/12 07:13:34;;;;;;;12.90;11.63;;;-1.50;99.90;;;;;;5024070;28;20184;-66
2022/02/12 07:16:01;;;;;;;15.73;11.93;;;-1.50;99.90;;;;;;5015802;28;20192;-65
2022/02/12 07:18:28;;;;;;;16.40;11.27;;;-1.40;99.90;;;;;;5017081;28;20659;-66
2022/02/12 07:20:53;;;;;;;21.27;11.93;;;-1.40;99.90;;;;;;5022963;28;20488;-66
2022/02/12 07:23:19;;;;;;;11.80;10.67;;;-1.30;99.90;;;;;;5017503;28;20218;-67
2022/02/12 07:25:45;;;;;;;17.03;12.17;;;-1.30;99.90;;;;;;5023865;28;20552;-66
2022/02/12 07:28:11;;;;;;;14.10;12.00;;;-1.20;99.90;;;;;;5025673;28;20191;-66
2022/02/12 07:30:37;;;;;;;16.93;12.03;;;-1.10;99.90;;;;;;5025095;28;20206;-66
2022/02/12 07:33:02;;;;;;;14.63;12.00;;;-1.10;99.90;;;;;;5025500;28;20172;-65
2022/02/12 07:35:28;;;;;;;15.73;12.83;;;-1.00;99.90;;;;;;5028144;28;20180;-66
2022/02/12 07:37:54;;;;;;;12.60;11.43;;;-1.00;99.90;;;;;;5015317;28;20457;-66
2022/02/12 07:40:20;;;;;;;14.10;12.60;;;-0.90;99.90;;;;;;5019397;28;20201;-66
2022/02/12 07:42:48;;;;;;;21.67;12.30;;;-0.90;99.90;;;;;;5034721;28;20665;-66
2022/02/12 07:45:16;;;;;;;14.57;11.17;;;-0.80;99.90;;;;;;5019338;28;20286;-66
2022/02/12 07:47:42;;;;;;;15.43;11.77;;;-0.70;99.90;;;;;;5027818;28;20231;-66
2022/02/12 07:50:10;;;;;;;14.63;10.43;;;-0.70;99.90;;;;;;5019389;28;20234;-66
2022/02/12 07:52:36;;;;;;;17.43;11.33;;;-0.60;99.90;;;;;;5020322;28;20200;-66
2022/02/12 07:55:03;;;;;;;14.57;10.93;;;-0.50;99.90;;;;;;5028856;28;20179;-67
2022/02/12 07:57:29;;;;;;;15.20;11.90;;;-0.50;99.90;;;;;;5030385;28;20611;-66
2022/02/12 07:59:54;;;;;;;12.13;10.73;;;-0.40;99.90;;;;;;5019021;28;20199;-66
2022/02/12 08:02:20;;;;;;;12.63;11.43;;;-0.30;99.90;;;;;;5016628;28;20285;-67
2022/02/12 08:04:45;;;;;;;16.40;11.87;;;-0.20;99.90;;;;;;5026924;28;20203;-66
2022/02/12 08:07:29;;;;;;;17.93;11.93;;;0.00;99.90;;;;;;5030137;28;20641;-66
2022/02/12 08:10:00;;;;;;;17.83;12.43;;;0.00;99.90;;;;;;5021441;28;20191;-66
2022/02/12 08:12:27;;;;;;;16.43;11.70;;;0.10;99.90;;;;;;5029025;28;20204;-65
2022/02/12 08:14:56;;;;;;;16.07;12.37;;;0.20;99.90;;;;;;5030646;28;20270;-66
2022/02/12 08:17:24;;;;;;;15.67;12.90;;;0.20;99.90;;;;;;5025348;28;20677;-67
2022/02/12 08:19:51;;;;;;;13.57;12.13;;;0.30;99.90;;;;;;5027569;28;20227;-67
2022/02/12 08:22:19;;;;;;;21.00;13.23;;;0.30;99.90;;;;;;5014273;28;20645;-66
2022/02/12 08:24:45;;;;;;;16.53;12.80;;;0.30;99.90;;;;;;5016889;28;20682;-66
2022/02/12 08:27:11;;;;;;;24.93;13.63;;;0.40;99.90;;;;;;5032460;28;20179;-66
2022/02/12 08:29:38;;;;;;;19.63;12.70;;;0.50;99.90;;;;;;5023174;28;20168;-66
2022/02/12 08:32:04;;;;;;;12.73;11.50;;;0.60;99.90;;;;;;5032737;28;20188;-67
2022/02/12 08:34:29;;;;;;;18.00;12.13;;;0.80;99.90;;;;;;5022888;28;20176;-66
2022/02/12 08:36:56;;;;;;;13.40;11.67;;;0.90;99.90;;;;;;5029130;28;20192;-66
2022/02/12 08:39:22;;;;;;;19.10;11.97;;;1.10;99.90;;;;;;5032435;28;20218;-66
2022/02/12 08:41:49;;;;;;;19.70;12.67;;;1.30;99.90;;;;;;5028998;28;20192;-66
2022/02/12 08:44:15;;;;;;;17.67;12.50;;;1.50;99.90;;;;;;5024294;28;20191;-65
2022/02/12 08:46:41;;;;;;;18.73;13.77;;;1.70;99.90;;;;;;5027675;28;20266;-66
2022/02/12 08:49:07;;;;;;;17.43;12.93;;;1.80;99.90;;;;;;5019816;28;20733;-66
2022/02/12 08:51:39;;;;;;;21.67;12.10;;;2.00;99.90;;;;;;5032246;28;20195;-66
2022/02/12 08:54:10;;;;;;;18.77;11.10;;;2.10;99.90;;;;;;5017802;28;20584;-65
2022/02/12 08:56:37;;;;;;;11.63;10.43;;;2.10;99.90;;;;;;5022984;28;20172;-65
2022/02/12 08:59:04;;;;;;;14.57;11.00;;;2.10;99.90;;;;;;5024519;28;20187;-65
2022/02/12 09:01:30;;;;;;;17.53;13.60;;;2.20;99.90;;;;;;5020230;28;20216;-65
2022/02/12 09:03:56;;;;;;;12.50;11.23;;;2.20;99.90;;;;;;5020907;28;20187;-66
2022/02/12 09:06:22;;;;;;;22.03;13.07;;;2.30;99.90;;;;;;5022297;28;20213;-65
2022/02/12 09:08:51;;;;;;;16.67;12.73;;;2.40;99.90;;;;;;5024343;28;20180;-66
2022/02/12 09:11:20;;;;;;;15.83;14.20;;;2.50;99.90;;;;;;5017283;28;20299;-65
2022/02/12 09:13:48;;;;;;;16.53;15.30;;;2.60;99.90;;;;;;5019398;28;20699;-65
2022/02/12 09:16:14;;;;;;;12.47;10.90;;;2.60;99.90;;;;;;5029236;28;20274;-65
2022/02/12 09:18:39;;;;;;;17.20;13.07;;;2.70;99.90;;;;;;5013568;28;20230;-65
2022/02/12 09:21:05;;;;;;;14.63;10.80;;;2.80;99.90;;;;;;5024019;28;20215;-65
2022/02/12 09:23:30;;;;;;;10.97;9.87;;;2.90;99.90;;;;;;5018851;28;20214;-65
2022/02/12 09:25:56;;;;;;;11.13;9.70;;;3.10;99.90;;;;;;5020730;28;20299;-65
2022/02/12 09:28:22;;;;;;;16.50;11.90;;;3.20;99.90;;;;;;5014049;28;20461;-65
2022/02/12 09:30:47;;;;;;;13.77;10.33;;;3.30;99.90;;;;;;5023330;28;20188;-65
2022/02/12 09:33:13;;;;;;;10.50;9.50;;;3.50;99.90;;;;;;5032516;28;20515;-65
2022/02/12 09:35:38;;;;;;;16.17;9.77;;;3.70;99.90;;;;;;5032786;28;20179;-65
2022/02/12 09:38:04;;;;;;;10.30;9.23;;;3.90;99.90;;;;;;5032854;28;20644;-66
2022/02/12 09:40:31;;;;;;;15.63;9.10;;;4.20;99.90;;;;;;5031667;28;20270;-66
2022/02/12 09:43:01;;;;;;;13.87;9.13;;;4.50;99.90;;;;;;5032330;28;20171;-66
2022/02/12 09:45:32;;;;;;;10.57;8.87;;;4.70;99.90;;;;;;5032226;28;20307;-65
2022/02/12 09:47:58;;;;;;;9.27;8.03;;;5.10;99.90;;;;;;5032534;28;20178;-66
2022/02/12 09:50:25;;;;;;;9.20;8.10;;;5.20;99.90;;;;;;5015368;28;20642;-66
2022/02/12 09:52:53;;;;;;;9.63;8.63;;;5.50;99.90;;;;;;5031020;28;20207;-66
2022/02/12 09:55:20;;;;;;;10.87;8.67;;;5.90;99.90;;;;;;5032407;28;20266;-66
2022/02/12 09:57:46;;;;;;;16.10;9.80;;;6.20;99.90;;;;;;5031034;28;20179;-66
2022/02/12 10:00:15;;;;;;;13.80;10.10;;;6.40;99.90;;;;;;5032176;28;20179;-67
2022/02/12 10:02:41;;;;;;;16.97;9.67;;;6.40;99.90;;;;;;5040450;23;20224;-66
2022/02/12 10:05:22;;;;;;;10.33;9.17;;;6.30;99.90;;;;;;5013079;28;20199;-67
2022/02/12 10:07:50;;;;;;;11.70;8.80;;;6.10;99.90;;;;;;5011145;28;20182;-66
2022/02/12 10:10:19;;;;;;;9.43;8.63;;;6.10;99.90;;;;;;5012330;28;20179;-66
2022/02/12 10:12:45;;;;;;;15.40;9.20;;;6.20;99.90;;;;;;5012071;28;20223;-66
2022/02/12 10:15:32;;;;;;;11.17;9.47;;;6.20;99.90;;;;;;5012217;28;20172;-66
2022/02/12 10:17:59;;;;;;;14.17;8.63;;;6.20;99.90;;;;;;5012251;28;20176;-67
2022/02/12 10:20:34;;;;;;;14.70;8.97;;;6.30;99.90;;;;;;5012208;28;20168;-67
2022/02/12 10:23:18;;;;;;;9.70;8.03;;;6.60;99.90;;;;;;5011859;28;20244;-67
2022/02/12 10:25:46;;;;;;;9.80;8.53;;;7.00;99.90;;;;;;5012030;28;20200;-67
2022/02/12 10:28:13;;;;;;;10.07;7.73;;;7.30;99.90;;;;;;5011909;28;20198;-67
2022/02/12 10:30:39;;;;;;;8.80;7.93;;;7.60;99.90;;;;;;5012124;28;20175;-66
2022/02/12 10:33:08;;;;;;;8.50;7.67;;;7.80;99.90;;;;;;5011560;28;20192;-66
2022/02/12 10:35:35;;;;;;;9.37;7.60;;;7.70;99.90;;;;;;5011954;28;20680;-66
2022/02/12 10:38:07;;;;;;;11.17;8.30;;;7.70;99.90;;;;;;5011800;28;20179;-66
2022/02/12 10:40:34;;;;;;;12.30;8.27;;;7.60;99.90;;;;;;5011975;28;20236;-67
2022/02/12 10:43:00;;;;;;;9.17;8.23;;;7.40;99.90;;;;;;5011540;28;20658;-68
2022/02/12 10:45:28;;;;;;;8.83;7.73;;;7.40;99.90;;;;;;5011284;28;20196;-67
2022/02/12 10:47:55;;;;;;;11.83;7.73;;;7.30;99.90;;;;;;5011756;28;20531;-67
2022/02/12 10:50:23;;;;;;;11.80;8.90;;;7.40;99.90;;;;;;5010423;28;20187;-67
2022/02/12 10:52:55;;;;;;;16.00;8.60;;;7.40;99.90;;;;;;5011541;28;20274;-66
2022/02/12 10:55:32;;;;;;;10.97;7.57;;;7.30;99.90;;;;;;5011222;28;20254;-67
2022/02/12 10:58:01;;;;;;;13.67;8.57;;;7.20;99.90;;;;;;5011772;28;20206;-67
2022/02/12 11:00:28;;;;;;;12.53;9.13;;;7.20;99.90;;;;;;5010986;28;20649;-67
2022/02/12 11:02:55;;;;;;;9.37;7.80;;;7.40;99.90;;;;;;5011587;28;20211;-67
2022/02/12 11:05:22;;;;;;;10.47;8.43;;;7.60;99.90;;;;;;5011775;28;20227;-67
2022/02/12 11:07:50;;;;;;;9.57;8.43;;;7.80;99.90;;;;;;5011514;28;20171;-67
2022/02/12 11:10:16;;;;;;;11.17;8.17;;;7.90;99.90;;;;;;5010528;28;20187;-66
2022/02/12 11:12:42;;;;;;;13.43;7.70;;;7.90;99.90;;;;;;5011407;28;20192;-67
2022/02/12 11:15:10;;;;;;;8.07;7.37;;;8.10;99.90;;;;;;5010839;28;20168;-67
2022/02/12 11:17:36;;;;;;;12.10;8.10;;;8.10;99.90;;;;;;5011762;28;20176;-67
2022/02/12 11:20:03;;;;;;;10.90;7.77;;;8.00;99.90;;;;;;5011428;28;20259;-67
2022/02/12 11:22:28;;;;;;;8.00;7.20;;;8.10;99.90;;;;;;5011068;28;20196;-67
2022/02/12 11:24:54;;;;;;;12.00;7.37;;;8.10;99.90;;;;;;5011489;28;20200;-68
2022/02/12 11:27:26;;;;;;;10.87;7.40;;;8.10;99.90;;;;;;5011429;28;20541;-66
2022/02/12 11:30:14;;;;;;;8.50;7.70;;;8.20;99.90;;;;;;5011502;28;20168;-67
2022/02/12 11:32:44;;;;;;;10.90;7.27;;;8.50;99.90;;;;;;5011333;28;20216;-68
2022/02/12 11:35:10;;;;;;;8.00;6.83;;;8.70;99.90;;;;;;5011371;28;20255;-67
2022/02/12 11:37:38;;;;;;;9.53;7.60;;;9.00;99.90;;;;;;5011401;28;20251;-67
2022/02/12 11:40:21;;;;;;;8.57;7.60;;;9.10;99.90;;;;;;5011159;28;20169;-67
2022/02/12 11:42:59;;;;;;;8.70;7.03;;;9.20;99.90;;;;;;5011227;28;20204;-67
2022/02/12 11:45:47;;;;;;;15.57;7.70;;;9.30;99.90;;;;;;5010710;28;20223;-67
2022/02/12 11:48:28;;;;;;;7.60;7.00;;;9.40;99.90;;;;;;5011114;28;20177;-66
2022/02/12 11:51:11;;;;;;;8.13;7.33;;;9.40;99.90;;;;;;5011100;28;20179;-67
2022/02/12 11:53:46;;;;;;;7.73;6.93;;;9.50;99.90;;;;;;5010892;28;20250;-67
2022/02/12 11:56:17;;;;;;;8.67;6.77;;;9.60;99.90;;;;;;5011197;28;20637;-68
2022/02/12 11:58:46;;;;;;;8.77;6.77;;;9.70;99.90;;;;;;5011201;28;20179;-66
2022/02/12 12:01:27;;;;;;;9.53;6.37;;;9.60;99.90;;;;;;5010920;28;20215;-67
2022/02/12 12:04:06;;;;;;;7.13;6.43;;;9.50;99.90;;;;;;5010733;28;20168;-67
2022/02/12 12:06:39;;;;;;;7.73;6.57;;;9.40;99.90;;;;;;5014332;28;20250;-66
2022/02/12 12:09:06;;;;;;;8.27;6.53;;;9.00;99.90;;;;;;5014646;28;20543;-67
2022/02/12 12:11:33;;;;;;;7.53;6.73;;;8.50;99.90;;;;;;5014547;28;20192;-67
2022/02/12 12:14:24;;;;;;;9.00;7.17;;;8.30;99.90;;;;;;5014097;28;20676;-67
2022/02/12 12:16:52;;;;;;;9.43;7.00;;;8.10;99.90;;;;;;5014517;28;20263;-66
2022/02/12 12:19:25;;;;;;;8.70;7.07;;;8.10;99.90;;;;;;5014281;28;20179;-65
2022/02/12 12:21:50;;;;;;;10.80;7.37;;;8.10;99.90;;;;;;5014229;28;20695;-66
2022/02/12 12:24:19;;;;;;;6.93;6.30;;;8.30;99.90;;;;;;5014015;28;20227;-66
2022/02/12 12:26:47;;;;;;;6.93;6.10;;;8.70;99.90;;;;;;5014232;28;20200;-66
2022/02/12 12:32:10;;;;;;;7.70;7.10;;;9.20;99.90;;;;;;5021653;28;20204;-66
2022/02/12 12:34:48;;;;;;;8.17;7.30;;;9.30;99.90;;;;;;5013551;28;20658;-65
2022/02/12 12:37:13;;;;;;;8.27;7.50;;;9.40;99.90;;;;;;4994466;28;20176;-66
2022/02/12 12:39:39;;;;;;;6.73;6.13;;;9.70;99.90;;;;;;5000820;28;20168;-65
2022/02/12 12:42:17;;;;;;;8.47;7.53;;;9.90;99.90;;;;;;5013532;28;20203;-66
2022/02/12 12:44:44;;;;;;;11.53;6.87;;;9.90;99.90;;;;;;5012797;28;20211;-65